createdAt,value
2017-04-17T00:00:08.382Z,76.62
2017-04-17T00:01:08.079Z,76.91
2017-04-17T00:02:07.668Z,76.88
2017-04-17T00:03:08.293Z,76.87
2017-04-17T00:04:07.803Z,77.30
2017-04-17T00:05:08.404Z,77.25
2017-04-17T00:06:08.386Z,76.91
2017-04-17T00:07:08.041Z,76.79
2017-04-17T00:08:07.537Z,76.55
2017-04-17T00:09:07.983Z,77.09
2017-04-17T00:10:07.533Z,77.71
2017-04-17T00:11:08.086Z,77.62
2017-04-17T00:12:07.634Z,77.07
2017-04-17T00:13:08.278Z,77.01
2017-04-17T00:14:07.816Z,78.17
2017-04-17T00:15:08.444Z,77.74
2017-04-17T00:16:07.927Z,77.96
2017-04-17T00:17:08.603Z,77.82
2017-04-17T00:18:08.148Z,77.43
2017-04-17T00:19:07.802Z,77.36
2017-04-17T00:20:08.198Z,77.72
2017-04-17T00:21:07.866Z,78.01
2017-04-17T00:22:08.689Z,77.80
2017-04-17T00:23:08.428Z,77.93
2017-04-17T00:24:08.053Z,78.03
2017-04-17T00:25:07.796Z,77.57
2017-04-17T00:26:08.387Z,77.57
2017-04-17T00:27:07.895Z,76.79
2017-04-17T00:28:08.670Z,77.05
2017-04-17T00:29:08.245Z,77.91
2017-04-17T00:30:07.905Z,77.88
2017-04-17T00:31:07.572Z,78.07
2017-04-17T00:32:08.060Z,77.38
2017-04-17T00:33:07.720Z,77.57
2017-04-17T00:34:08.238Z,77.60
2017-04-17T00:35:07.862Z,77.59
2017-04-17T00:36:09.023Z,76.86
2017-04-17T00:37:07.504Z,76.93
2017-04-17T00:38:08.112Z,76.84
2017-04-17T00:39:07.720Z,77.35
2017-04-17T00:40:08.268Z,77.58
2017-04-17T00:41:08.065Z,77.58
2017-04-17T00:42:07.529Z,77.43
2017-04-17T00:43:08.013Z,77.40
2017-04-17T00:44:07.849Z,77.05
2017-04-17T00:45:08.411Z,77.07
2017-04-17T00:46:07.993Z,77.01
2017-04-17T00:47:07.542Z,77.55
2017-04-17T00:48:08.104Z,77.70
2017-04-17T00:49:07.914Z,77.16
2017-04-17T00:50:08.562Z,77.65
2017-04-17T00:51:08.232Z,78.04
2017-04-17T00:52:07.771Z,78.24
2017-04-17T00:53:08.883Z,78.10
2017-04-17T00:54:08.367Z,78.42
2017-04-17T00:55:07.851Z,77.91
2017-04-17T00:56:08.405Z,78.08
2017-04-17T00:57:15.347Z,77.75
2017-04-17T00:58:07.966Z,77.34
2017-04-17T00:59:07.515Z,77.38
2017-04-17T01:00:08.213Z,76.99
2017-04-17T01:01:08.066Z,76.99
2017-04-17T01:02:07.707Z,76.79
2017-04-17T01:03:08.554Z,77.22
2017-04-17T01:04:08.411Z,77.46
2017-04-17T01:05:08.220Z,77.65
2017-04-17T01:06:07.915Z,77.48
2017-04-17T01:07:08.664Z,77.51
2017-04-17T01:08:08.312Z,77.78
2017-04-17T01:09:07.997Z,78.03
2017-04-17T01:10:07.730Z,78.06
2017-04-17T01:11:08.385Z,77.74
2017-04-17T01:12:08.278Z,77.46
2017-04-17T01:13:07.979Z,77.70
2017-04-17T01:14:07.979Z,77.00
2017-04-17T01:15:07.554Z,77.37
2017-04-17T01:16:08.374Z,77.91
2017-04-17T01:17:08.698Z,77.83
2017-04-17T01:18:08.521Z,78.10
2017-04-17T01:19:08.369Z,78.42
2017-04-17T01:20:07.949Z,78.03
2017-04-17T01:21:07.660Z,77.75
2017-04-17T01:22:08.414Z,77.47
2017-04-17T01:23:08.178Z,77.57
2017-04-17T01:24:07.819Z,77.95
2017-04-17T01:25:08.557Z,77.00
2017-04-17T01:26:08.145Z,76.81
2017-04-17T01:27:07.785Z,76.75
2017-04-17T01:28:08.346Z,77.18
2017-04-17T01:29:07.922Z,77.50
2017-04-17T01:30:08.582Z,77.56
2017-04-17T01:31:08.178Z,77.76
2017-04-17T01:32:07.828Z,77.92
2017-04-17T01:33:08.461Z,78.34
2017-04-17T01:34:08.123Z,77.53
2017-04-17T01:35:07.645Z,77.56
2017-04-17T01:36:08.140Z,77.69
2017-04-17T01:37:07.741Z,77.06
2017-04-17T01:38:08.357Z,76.33
2017-04-17T01:39:08.404Z,76.59
2017-04-17T01:40:07.875Z,77.16
2017-04-17T01:41:08.426Z,76.81
2017-04-17T01:42:07.998Z,77.11
2017-04-17T01:43:07.790Z,77.14
2017-04-17T01:44:08.660Z,76.99
2017-04-17T01:45:08.214Z,77.15
2017-04-17T01:46:07.917Z,77.19
2017-04-17T01:47:08.596Z,76.84
2017-04-17T01:48:08.234Z,76.70
2017-04-17T01:49:07.730Z,76.30
2017-04-17T01:50:08.384Z,76.70
2017-04-17T01:51:08.168Z,77.18
2017-04-17T01:52:07.663Z,77.59
2017-04-17T01:53:08.328Z,77.62
2017-04-17T01:54:08.008Z,77.41
2017-04-17T01:55:08.107Z,77.09
2017-04-17T01:56:07.809Z,77.15
2017-04-17T01:57:08.245Z,76.62
2017-04-17T01:58:07.866Z,76.73
2017-04-17T01:59:08.435Z,76.71
2017-04-17T02:00:07.993Z,76.97
2017-04-17T02:01:07.529Z,77.20
2017-04-17T02:02:08.009Z,77.31
2017-04-17T02:03:07.530Z,77.32
2017-04-17T02:04:08.227Z,76.56
2017-04-17T02:05:08.487Z,77.06
2017-04-17T02:06:08.061Z,76.96
2017-04-17T02:07:08.240Z,77.18
2017-04-17T02:08:08.097Z,77.25
2017-04-17T02:09:07.881Z,77.28
2017-04-17T02:10:08.500Z,77.08
2017-04-17T02:11:08.242Z,77.63
2017-04-17T02:12:07.739Z,77.48
2017-04-17T02:13:08.367Z,77.12
2017-04-17T02:14:08.095Z,77.15
2017-04-17T02:15:07.728Z,77.79
2017-04-17T02:16:08.372Z,78.06
2017-04-17T02:17:07.918Z,77.41
2017-04-17T02:18:08.438Z,77.07
2017-04-17T02:19:08.253Z,76.79
2017-04-17T02:20:07.829Z,77.00
2017-04-17T02:21:08.378Z,77.29
2017-04-17T02:22:07.910Z,77.10
2017-04-17T02:23:08.528Z,77.17
2017-04-17T02:24:08.629Z,77.06
2017-04-17T02:25:08.126Z,76.45
2017-04-17T02:26:07.712Z,76.62
2017-04-17T02:27:07.700Z,77.40
2017-04-17T02:28:08.327Z,77.31
2017-04-17T02:29:14.830Z,77.28
2017-04-17T02:30:08.410Z,77.36
2017-04-17T02:31:07.968Z,77.58
2017-04-17T02:32:07.561Z,77.59
2017-04-17T02:33:08.400Z,77.64
2017-04-17T02:34:08.294Z,77.35
2017-04-17T02:35:07.858Z,77.23
2017-04-17T02:36:08.170Z,76.88
2017-04-17T02:37:07.833Z,76.84
2017-04-17T02:38:07.772Z,76.22
2017-04-17T02:39:07.889Z,76.27
2017-04-17T02:40:08.410Z,76.36
2017-04-17T02:41:07.852Z,76.76
2017-04-17T02:42:07.849Z,76.35
2017-04-17T02:43:08.425Z,75.90
2017-04-17T02:44:08.537Z,76.02
2017-04-17T02:45:07.995Z,76.88
2017-04-17T02:46:08.332Z,76.28
2017-04-17T02:47:08.123Z,76.00
2017-04-17T02:48:07.846Z,75.86
2017-04-17T02:49:08.710Z,75.74
2017-04-17T02:50:08.459Z,75.90
2017-04-17T02:51:08.321Z,76.40
2017-04-17T02:52:08.048Z,76.90
2017-04-17T02:53:07.802Z,77.01
2017-04-17T02:54:08.440Z,76.98
2017-04-17T02:55:08.059Z,77.15
2017-04-17T02:56:07.769Z,76.99
2017-04-17T02:57:08.488Z,76.54
2017-04-17T02:58:07.879Z,76.34
2017-04-17T02:59:08.764Z,76.57
2017-04-17T03:00:07.704Z,76.37
2017-04-17T03:01:08.254Z,76.53
2017-04-17T03:02:07.991Z,76.52
2017-04-17T03:03:07.579Z,76.63
2017-04-17T03:04:08.183Z,77.29
2017-04-17T03:05:07.789Z,77.35
2017-04-17T03:06:08.486Z,77.49
2017-04-17T03:07:08.315Z,77.03
2017-04-17T03:08:07.955Z,76.91
2017-04-17T03:09:07.923Z,75.99
2017-04-17T03:10:08.436Z,76.24
2017-04-17T03:11:07.968Z,76.94
2017-04-17T03:12:07.431Z,77.38
2017-04-17T03:13:08.185Z,77.09
2017-04-17T03:14:08.076Z,76.63
2017-04-17T03:15:07.662Z,76.80
2017-04-17T03:16:08.267Z,76.67
2017-04-17T03:17:07.891Z,76.91
2017-04-17T03:18:07.936Z,76.13
2017-04-17T03:19:07.459Z,75.93
2017-04-17T03:20:08.075Z,76.12
2017-04-17T03:21:07.794Z,76.95
2017-04-17T03:22:08.679Z,76.76
2017-04-17T03:23:08.290Z,76.50
2017-04-17T03:24:07.892Z,76.21
2017-04-17T03:25:08.056Z,76.60
2017-04-17T03:26:07.878Z,76.61
2017-04-17T03:27:08.661Z,75.90
2017-04-17T03:28:08.430Z,75.93
2017-04-17T03:29:08.270Z,75.57
2017-04-17T03:30:07.968Z,75.70
2017-04-17T03:31:07.517Z,76.19
2017-04-17T03:32:08.154Z,76.49
2017-04-17T03:33:07.708Z,76.46
2017-04-17T03:34:08.301Z,76.45
2017-04-17T03:35:07.960Z,76.68
2017-04-17T03:36:07.458Z,76.92
2017-04-17T03:37:07.991Z,76.80
2017-04-17T03:38:08.772Z,76.45
2017-04-17T03:39:08.422Z,76.25
2017-04-17T03:40:07.961Z,76.24
2017-04-17T03:41:07.494Z,76.47
2017-04-17T03:42:08.078Z,76.38
2017-04-17T03:43:07.568Z,76.39
2017-04-17T03:44:08.088Z,75.79
2017-04-17T03:45:07.596Z,75.93
2017-04-17T03:46:08.178Z,76.35
2017-04-17T03:47:07.779Z,76.24
2017-04-17T03:48:08.351Z,76.02
2017-04-17T03:49:07.910Z,75.99
2017-04-17T03:50:08.510Z,75.83
2017-04-17T03:51:08.142Z,75.65
2017-04-17T03:52:07.718Z,75.66
2017-04-17T03:53:09.042Z,75.53
2017-04-17T03:54:07.527Z,75.84
2017-04-17T03:55:08.106Z,75.81
2017-04-17T03:56:07.669Z,76.51
2017-04-17T03:57:08.312Z,76.85
2017-04-17T03:58:07.938Z,76.50
2017-04-17T03:59:07.527Z,77.29
2017-04-17T04:00:08.068Z,76.07
2017-04-17T04:01:07.559Z,76.03
2017-04-17T04:02:08.185Z,75.91
2017-04-17T04:03:07.775Z,75.70
2017-04-17T04:04:08.366Z,75.56
2017-04-17T04:05:08.650Z,75.13
2017-04-17T04:06:08.229Z,74.69
2017-04-17T04:07:07.908Z,74.73
2017-04-17T04:08:07.533Z,74.57
2017-04-17T04:09:08.224Z,74.33
2017-04-17T04:10:07.852Z,74.09
2017-04-17T04:11:08.506Z,74.53
2017-04-17T04:12:08.137Z,74.78
2017-04-17T04:13:07.740Z,74.93
2017-04-17T04:14:08.361Z,74.69
2017-04-17T04:15:08.064Z,75.19
2017-04-17T04:16:07.525Z,74.91
2017-04-17T04:17:08.362Z,75.60
2017-04-17T04:18:07.975Z,75.66
2017-04-17T04:19:07.511Z,75.51
2017-04-17T04:20:08.061Z,75.38
2017-04-17T04:21:07.655Z,75.35
2017-04-17T04:22:08.327Z,75.27
2017-04-17T04:23:07.867Z,75.32
2017-04-17T04:24:08.507Z,75.54
2017-04-17T04:25:11.485Z,75.80
2017-04-17T04:26:08.358Z,75.31
2017-04-17T04:27:08.696Z,74.88
2017-04-17T04:28:08.279Z,75.59
2017-04-17T04:29:07.802Z,75.83
2017-04-17T04:30:08.431Z,75.58
2017-04-17T04:31:07.938Z,75.51
2017-04-17T04:32:07.527Z,75.99
2017-04-17T04:33:08.044Z,76.85
2017-04-17T04:34:07.498Z,76.76
2017-04-17T04:35:08.331Z,76.84
2017-04-17T04:36:07.862Z,77.22
2017-04-17T04:37:08.410Z,75.85
2017-04-17T04:38:08.062Z,76.35
2017-04-17T04:39:07.586Z,75.93
2017-04-17T04:40:08.098Z,75.87
2017-04-17T04:41:07.624Z,75.90
2017-04-17T04:42:08.146Z,76.18
2017-04-17T04:43:07.716Z,76.65
2017-04-17T04:44:08.753Z,77.38
2017-04-17T04:45:08.285Z,76.29
2017-04-17T04:46:07.865Z,76.29
2017-04-17T04:47:08.478Z,76.80
2017-04-17T04:48:08.222Z,76.99
2017-04-17T04:49:07.804Z,77.31
2017-04-17T04:50:08.325Z,77.62
2017-04-17T04:51:08.756Z,77.36
2017-04-17T04:52:08.305Z,77.30
2017-04-17T04:53:07.841Z,77.37
2017-04-17T04:54:08.838Z,77.37
2017-04-17T04:55:08.364Z,77.88
2017-04-17T04:56:07.965Z,77.71
2017-04-17T04:57:07.437Z,78.30
2017-04-17T04:58:07.957Z,78.02
2017-04-17T04:59:07.470Z,78.07
2017-04-17T05:00:08.021Z,78.22
2017-04-17T05:01:07.784Z,78.31
2017-04-17T05:02:08.360Z,78.56
2017-04-17T05:03:07.960Z,77.99
2017-04-17T05:04:07.390Z,77.71
2017-04-17T05:05:08.009Z,78.36
2017-04-17T05:06:07.484Z,78.23
2017-04-17T05:07:08.128Z,78.12
2017-04-17T05:08:07.699Z,77.77
2017-04-17T05:09:08.267Z,78.06
2017-04-17T05:10:07.858Z,78.21
2017-04-17T05:11:08.429Z,78.64
2017-04-17T05:12:08.012Z,78.17
2017-04-17T05:13:07.555Z,78.22
2017-04-17T05:14:08.419Z,78.48
2017-04-17T05:15:08.052Z,78.11
2017-04-17T05:16:07.638Z,78.11
2017-04-17T05:17:08.343Z,78.30
2017-04-17T05:18:08.040Z,78.17
2017-04-17T05:19:07.536Z,77.93
2017-04-17T05:20:08.084Z,77.94
2017-04-17T05:21:07.622Z,78.40
2017-04-17T05:22:08.070Z,79.00
2017-04-17T05:23:07.695Z,78.87
2017-04-17T05:24:08.262Z,78.86
2017-04-17T05:25:07.704Z,78.88
2017-04-17T05:26:08.522Z,78.53
2017-04-17T05:27:08.066Z,77.86
2017-04-17T05:28:07.597Z,78.02
2017-04-17T05:29:08.197Z,78.51
2017-04-17T05:30:07.723Z,78.32
2017-04-17T05:31:08.270Z,78.04
2017-04-17T05:32:07.766Z,78.44
2017-04-17T05:33:08.379Z,78.90
2017-04-17T05:34:07.941Z,78.62
2017-04-17T05:35:07.446Z,78.66
2017-04-17T05:36:08.026Z,78.62
2017-04-17T05:37:07.561Z,78.93
2017-04-17T05:38:08.170Z,79.64
2017-04-17T05:39:07.738Z,79.82
2017-04-17T05:40:08.755Z,79.73
2017-04-17T05:41:08.355Z,79.65
2017-04-17T05:42:07.957Z,79.29
2017-04-17T05:43:07.497Z,79.09
2017-04-17T05:44:08.076Z,79.02
2017-04-17T05:45:07.729Z,79.22
2017-04-17T05:46:08.276Z,79.33
2017-04-17T05:47:07.874Z,79.79
2017-04-17T05:48:08.535Z,79.36
2017-04-17T05:49:08.462Z,79.73
2017-04-17T05:50:07.929Z,79.55
2017-04-17T05:51:07.767Z,79.35
2017-04-17T05:52:08.371Z,79.05
2017-04-17T05:53:07.997Z,78.76
2017-04-17T05:54:07.553Z,78.72
2017-04-17T05:55:08.171Z,78.81
2017-04-17T05:56:07.692Z,79.17
2017-04-17T05:57:08.265Z,79.20
2017-04-17T05:58:07.861Z,79.39
2017-04-17T05:59:08.436Z,78.36
2017-04-17T06:00:07.959Z,78.30
2017-04-17T06:01:07.477Z,79.05
2017-04-17T06:02:07.993Z,79.67
2017-04-17T06:03:07.528Z,79.54
2017-04-17T06:04:08.128Z,79.43
2017-04-17T06:05:07.727Z,78.90
2017-04-17T06:06:08.669Z,78.67
2017-04-17T06:07:08.247Z,77.62
2017-04-17T06:08:07.747Z,78.28
2017-04-17T06:09:08.815Z,78.03
2017-04-17T06:10:08.437Z,78.34
2017-04-17T06:11:08.038Z,78.36
2017-04-17T06:12:07.669Z,78.54
2017-04-17T06:13:08.248Z,78.82
2017-04-17T06:14:07.841Z,78.49
2017-04-17T06:15:08.438Z,78.65
2017-04-17T06:16:08.296Z,78.04
2017-04-17T06:17:07.814Z,79.09
2017-04-17T06:18:07.555Z,78.86
2017-04-17T06:19:08.076Z,78.75
2017-04-17T06:20:07.585Z,79.46
2017-04-17T06:21:08.286Z,78.58
2017-04-17T06:22:08.202Z,78.99
2017-04-17T06:23:07.708Z,78.65
2017-04-17T06:24:08.316Z,78.28
2017-04-17T06:25:07.761Z,78.26
2017-04-17T06:26:07.562Z,78.49
2017-04-17T06:27:08.158Z,78.49
2017-04-17T06:28:07.677Z,78.65
2017-04-17T06:29:08.535Z,78.71
2017-04-17T06:30:08.108Z,79.18
2017-04-17T06:31:07.728Z,79.90
2017-04-17T06:32:08.348Z,80.00
2017-04-17T06:33:07.913Z,79.31
2017-04-17T06:34:08.576Z,78.20
2017-04-17T06:35:08.204Z,77.97
2017-04-17T06:36:07.954Z,78.21
2017-04-17T06:37:07.592Z,78.84
2017-04-17T06:38:08.212Z,78.15
2017-04-17T06:39:07.866Z,78.70
2017-04-17T06:40:08.486Z,77.98
2017-04-17T06:41:08.067Z,78.12
2017-04-17T06:42:07.724Z,78.19
2017-04-17T06:43:08.294Z,77.91
2017-04-17T06:44:07.889Z,78.60
2017-04-17T06:45:08.528Z,78.47
2017-04-17T06:46:08.099Z,78.71
2017-04-17T06:47:07.595Z,78.94
2017-04-17T06:48:08.154Z,78.43
2017-04-17T06:49:07.646Z,78.25
2017-04-17T06:50:08.743Z,77.79
2017-04-17T06:51:08.303Z,77.93
2017-04-17T06:52:07.819Z,78.26
2017-04-17T06:53:08.422Z,78.78
2017-04-17T06:54:08.014Z,79.02
2017-04-17T06:55:07.653Z,78.53
2017-04-17T06:56:08.189Z,78.88
2017-04-17T06:57:07.746Z,78.71
2017-04-17T06:58:08.361Z,77.10
2017-04-17T06:59:07.867Z,77.48
2017-04-17T07:00:08.495Z,78.87
2017-04-17T07:01:08.045Z,78.78
2017-04-17T07:02:07.504Z,78.53
2017-04-17T07:03:08.063Z,77.91
2017-04-17T07:04:07.550Z,77.84
2017-04-17T07:05:08.078Z,78.22
2017-04-17T07:06:07.532Z,78.18
2017-04-17T07:07:08.158Z,77.33
2017-04-17T07:08:07.903Z,78.54
2017-04-17T07:09:08.538Z,78.06
2017-04-17T07:10:08.612Z,78.21
2017-04-17T07:11:08.290Z,78.13
2017-04-17T07:12:07.796Z,77.52
2017-04-17T07:13:08.296Z,77.66
2017-04-17T07:14:07.866Z,78.36
2017-04-17T07:15:08.408Z,78.05
2017-04-17T07:16:07.996Z,77.18
2017-04-17T07:17:07.714Z,77.17
2017-04-17T07:18:08.307Z,77.11
2017-04-17T07:19:07.921Z,77.16
2017-04-17T07:20:08.547Z,77.34
2017-04-17T07:21:08.107Z,78.20
2017-04-17T07:22:07.687Z,75.82
2017-04-17T07:23:08.215Z,76.90
2017-04-17T07:24:07.826Z,77.30
2017-04-17T07:25:09.004Z,77.33
2017-04-17T07:26:07.683Z,77.08
2017-04-17T07:27:08.235Z,77.19
2017-04-17T07:28:07.752Z,77.44
2017-04-17T07:29:08.335Z,77.70
2017-04-17T07:30:07.898Z,77.24
2017-04-17T07:31:08.575Z,77.32
2017-04-17T07:32:08.036Z,77.80
2017-04-17T07:33:07.555Z,78.13
2017-04-17T07:34:08.176Z,76.94
2017-04-17T07:35:07.785Z,76.81
2017-04-17T07:36:08.822Z,76.34
2017-04-17T07:37:08.452Z,76.20
2017-04-17T07:38:07.954Z,76.77
2017-04-17T07:39:07.577Z,77.96
2017-04-17T07:40:08.045Z,77.23
2017-04-17T07:41:07.560Z,77.03
2017-04-17T07:42:08.078Z,76.54
2017-04-17T07:43:07.646Z,76.94
2017-04-17T07:44:08.145Z,77.52
2017-04-17T07:45:07.676Z,77.00
2017-04-17T07:46:08.187Z,76.27
2017-04-17T07:47:08.296Z,76.52
2017-04-17T07:48:07.873Z,76.49
2017-04-17T07:49:08.456Z,76.68
2017-04-17T07:50:08.094Z,76.34
2017-04-17T07:51:07.685Z,76.63
2017-04-17T07:52:08.288Z,75.60
2017-04-17T07:53:07.857Z,76.34
2017-04-17T07:54:08.415Z,75.78
2017-04-17T07:55:07.989Z,75.75
2017-04-17T07:56:07.597Z,76.19
2017-04-17T07:57:08.138Z,77.03
2017-04-17T07:58:07.596Z,75.40
2017-04-17T07:59:08.389Z,74.93
2017-04-17T08:00:07.931Z,76.27
2017-04-17T08:01:08.513Z,77.37
2017-04-17T08:02:08.103Z,76.93
2017-04-17T08:03:07.598Z,76.22
2017-04-17T08:04:08.127Z,75.92
2017-04-17T08:05:07.632Z,74.64
2017-04-17T08:06:08.120Z,75.26
2017-04-17T08:07:08.109Z,75.48
2017-04-17T08:08:07.721Z,76.04
2017-04-17T08:09:08.241Z,77.06
2017-04-17T08:10:08.018Z,76.86
2017-04-17T08:11:07.534Z,75.35
2017-04-17T08:12:08.167Z,76.14
2017-04-17T08:13:07.641Z,75.97
2017-04-17T08:14:08.195Z,75.61
2017-04-17T08:15:07.681Z,74.64
2017-04-17T08:16:08.236Z,74.48
2017-04-17T08:17:08.000Z,74.35
2017-04-17T08:18:07.473Z,74.94
2017-04-17T08:19:07.987Z,75.43
2017-04-17T08:20:07.588Z,75.03
2017-04-17T08:21:08.194Z,74.69
2017-04-17T08:22:07.755Z,74.65
2017-04-17T08:23:08.248Z,75.37
2017-04-17T08:24:07.801Z,73.59
2017-04-17T08:25:08.837Z,74.46
2017-04-17T08:26:08.349Z,75.28
2017-04-17T08:27:07.994Z,75.51
2017-04-17T08:28:07.472Z,74.87
2017-04-17T08:29:07.964Z,73.95
2017-04-17T08:30:07.502Z,72.83
2017-04-17T08:31:08.054Z,72.45
2017-04-17T08:32:07.621Z,72.42
2017-04-17T08:33:08.212Z,73.39
2017-04-17T08:34:08.007Z,73.79
2017-04-17T08:35:07.451Z,74.02
2017-04-17T08:36:08.101Z,74.74
2017-04-17T08:37:08.175Z,74.46
2017-04-17T08:38:07.742Z,74.93
2017-04-17T08:39:08.319Z,74.27
2017-04-17T08:40:07.827Z,74.61
2017-04-17T08:41:08.410Z,74.47
2017-04-17T08:42:08.143Z,73.78
2017-04-17T08:43:07.637Z,73.79
2017-04-17T08:44:08.255Z,73.01
2017-04-17T08:45:07.857Z,72.24
2017-04-17T08:46:08.472Z,71.53
2017-04-17T08:47:08.060Z,72.87
2017-04-17T08:48:07.630Z,73.48
2017-04-17T08:49:08.117Z,73.45
2017-04-17T08:50:07.634Z,72.81
2017-04-17T08:51:08.258Z,72.12
2017-04-17T08:52:07.763Z,71.91
2017-04-17T08:53:08.326Z,72.98
2017-04-17T08:54:07.839Z,73.15
2017-04-17T08:55:08.681Z,71.39
2017-04-17T08:56:08.248Z,71.90
2017-04-17T08:57:08.067Z,72.12
2017-04-17T08:58:07.617Z,72.00
2017-04-17T08:59:08.221Z,71.99
2017-04-17T09:00:07.712Z,73.26
2017-04-17T09:01:08.223Z,73.68
2017-04-17T09:02:07.854Z,73.73
2017-04-17T09:03:08.408Z,74.36
2017-04-17T09:04:08.118Z,74.31
2017-04-17T09:05:07.701Z,71.96
2017-04-17T09:06:08.264Z,72.31
2017-04-17T09:07:08.332Z,73.09
2017-04-17T09:08:07.859Z,73.48
2017-04-17T09:09:07.563Z,73.71
2017-04-17T09:10:08.145Z,73.81
2017-04-17T09:11:07.620Z,73.46
2017-04-17T09:12:08.298Z,73.51
2017-04-17T09:13:07.893Z,72.95
2017-04-17T09:14:08.520Z,72.14
2017-04-17T09:15:15.738Z,71.48
2017-04-17T09:16:08.333Z,71.68
2017-04-17T09:17:08.554Z,72.15
2017-04-17T09:18:08.109Z,70.42
2017-04-17T09:19:07.697Z,69.96
2017-04-17T09:20:08.218Z,69.80
2017-04-17T09:21:07.680Z,70.68
2017-04-17T09:22:08.735Z,71.08
2017-04-17T09:23:08.456Z,69.55
2017-04-17T09:24:08.882Z,69.84
2017-04-17T09:25:09.462Z,71.18
2017-04-17T09:26:08.099Z,69.68
2017-04-17T09:27:07.584Z,69.81
2017-04-17T09:28:08.086Z,68.86
2017-04-17T09:29:07.637Z,69.05
2017-04-17T09:30:08.288Z,68.36
2017-04-17T09:31:07.747Z,68.69
2017-04-17T09:32:08.314Z,68.55
2017-04-17T09:33:07.891Z,68.83
2017-04-17T09:34:08.470Z,68.91
2017-04-17T09:35:08.105Z,69.49
2017-04-17T09:36:07.788Z,69.04
2017-04-17T09:37:08.476Z,68.70
2017-04-17T09:38:08.001Z,69.06
2017-04-17T09:39:07.491Z,69.01
2017-04-17T09:40:08.019Z,68.14
2017-04-17T09:41:07.607Z,67.92
2017-04-17T09:42:08.177Z,68.30
2017-04-17T09:43:07.809Z,68.25
2017-04-17T09:44:08.393Z,68.91
2017-04-17T09:45:07.890Z,68.65
2017-04-17T09:46:08.427Z,67.64
2017-04-17T09:47:07.925Z,67.94
2017-04-17T09:48:08.488Z,67.78
2017-04-17T09:49:08.057Z,67.31
2017-04-17T09:50:07.655Z,68.18
2017-04-17T09:51:08.302Z,68.02
2017-04-17T09:52:07.805Z,65.85
2017-04-17T09:53:08.461Z,66.66
2017-04-17T09:54:08.047Z,66.51
2017-04-17T09:55:07.558Z,66.37
2017-04-17T09:56:08.282Z,65.09
2017-04-17T09:57:07.827Z,65.04
2017-04-17T09:58:08.299Z,64.68
2017-04-17T09:59:08.085Z,65.31
2017-04-17T10:00:07.633Z,65.58
2017-04-17T10:01:08.113Z,65.44
2017-04-17T10:02:07.670Z,64.98
2017-04-17T10:03:08.254Z,64.33
2017-04-17T10:04:07.847Z,65.35
2017-04-17T10:05:08.375Z,63.94
2017-04-17T10:06:07.954Z,64.51
2017-04-17T10:07:07.524Z,63.59
2017-04-17T10:08:08.200Z,64.28
2017-04-17T10:09:07.848Z,64.43
2017-04-17T10:10:15.556Z,64.66
2017-04-17T10:11:08.668Z,64.30
2017-04-17T10:12:08.257Z,64.68
2017-04-17T10:13:07.838Z,65.75
2017-04-17T10:14:08.548Z,66.08
2017-04-17T10:15:08.149Z,65.57
2017-04-17T10:16:07.696Z,66.53
2017-04-17T10:17:08.467Z,66.13
2017-04-17T10:23:37.239Z,66.11
2017-04-17T10:25:31.178Z,66.94
2017-04-17T10:26:35.316Z,67.36
2017-04-17T10:27:33.445Z,68.12
2017-04-17T10:29:35.119Z,67.92
2017-04-17T10:30:28.603Z,68.44
2017-04-17T10:31:38.817Z,68.02
2017-04-17T10:32:32.249Z,68.17
2017-04-17T10:33:25.511Z,69.21
2017-04-17T10:34:29.445Z,68.62
2017-04-17T10:35:35.704Z,67.76
2017-04-17T10:37:30.439Z,67.32
2017-04-17T10:38:31.427Z,67.94
2017-04-17T10:40:30.522Z,70.04
2017-04-17T10:41:36.428Z,69.22
2017-04-17T10:42:34.586Z,68.86
2017-04-17T10:43:42.177Z,68.59
2017-04-17T10:44:24.883Z,68.66
2017-04-17T10:45:33.380Z,68.10
2017-04-17T10:48:34.137Z,69.45
2017-04-17T10:49:28.249Z,69.95
2017-04-17T10:50:33.813Z,70.30
2017-04-17T10:51:28.787Z,69.87
2017-04-17T10:52:29.007Z,69.88
2017-04-17T10:53:35.162Z,68.82
2017-04-17T10:54:24.250Z,67.96
2017-04-17T10:55:24.543Z,68.89
2017-04-17T10:56:31.433Z,69.25
2017-04-17T10:57:24.583Z,71.55
2017-04-17T10:58:32.203Z,72.43
2017-04-17T11:00:28.378Z,71.86
2017-04-17T11:01:31.395Z,71.27
2017-04-17T11:02:31.793Z,70.93
2017-04-17T11:03:31.208Z,71.00
2017-04-17T11:04:28.506Z,71.72
2017-04-17T11:05:34.029Z,71.91
2017-04-17T11:06:27.218Z,71.91
2017-04-17T11:07:25.062Z,72.01
2017-04-17T11:08:31.445Z,71.65
2017-04-17T11:09:31.447Z,71.90
2017-04-17T11:10:32.958Z,73.00
2017-04-17T11:11:28.854Z,72.59
2017-04-17T11:12:29.079Z,72.41
2017-04-17T11:13:24.766Z,73.38
2017-04-17T11:14:29.107Z,72.94
2017-04-17T11:15:23.246Z,73.09
2017-04-17T11:16:31.970Z,73.33
2017-04-17T11:17:36.039Z,73.79
2017-04-17T11:18:35.930Z,74.47
2017-04-17T11:19:37.239Z,73.22
2017-04-17T11:20:25.269Z,73.07
2017-04-17T11:21:24.431Z,74.39
2017-04-17T11:22:41.747Z,73.94
2017-04-17T11:23:25.207Z,73.36
2017-04-17T11:24:31.027Z,73.05
2017-04-17T11:26:32.667Z,72.95
2017-04-17T11:27:31.533Z,72.38
2017-04-17T11:28:30.811Z,72.74
2017-04-17T11:29:36.862Z,72.66
2017-04-17T11:30:35.756Z,72.60
2017-04-17T11:31:33.664Z,72.78
2017-04-17T11:32:28.871Z,73.04
2017-04-17T11:33:25.111Z,71.34
2017-04-17T11:34:28.192Z,70.60
2017-04-17T11:35:28.679Z,70.96
2017-04-17T11:36:28.438Z,70.79
2017-04-17T11:37:35.684Z,70.60
2017-04-17T11:38:36.877Z,71.19
2017-04-17T11:39:38.248Z,71.81
2017-04-17T11:40:31.619Z,71.79
2017-04-17T11:41:24.960Z,71.45
2017-04-17T11:42:29.907Z,72.03
2017-04-17T11:43:35.334Z,71.73
2017-04-17T11:44:31.589Z,71.75
2017-04-17T11:45:27.982Z,70.93
2017-04-17T11:46:26.209Z,71.06
2017-04-17T11:47:29.538Z,70.97
2017-04-17T11:48:33.236Z,71.40
2017-04-17T11:50:34.508Z,73.23
2017-04-17T11:52:38.274Z,74.14
2017-04-17T11:53:29.354Z,72.97
2017-04-17T11:54:24.782Z,72.33
2017-04-17T11:56:39.707Z,74.13
2017-04-17T11:57:46.790Z,73.62
2017-04-17T11:59:28.929Z,73.91
2017-04-17T12:00:44.490Z,73.93
2017-04-17T12:01:43.797Z,73.11
2017-04-17T12:02:32.066Z,73.36
2017-04-17T12:03:24.251Z,73.69
2017-04-17T12:04:24.304Z,72.91
2017-04-17T12:07:33.137Z,72.10
2017-04-17T12:08:23.170Z,71.75
2017-04-17T12:09:40.281Z,71.81
2017-04-17T12:11:42.695Z,70.07
2017-04-17T12:12:35.802Z,70.45
2017-04-17T12:14:29.928Z,70.38
2017-04-17T12:15:45.111Z,70.73
2017-04-17T12:16:38.050Z,71.94
2017-04-17T12:18:55.756Z,70.36
2017-04-17T12:19:26.354Z,68.85
2017-04-17T12:20:34.217Z,68.31
2017-04-17T12:21:27.913Z,69.17
2017-04-17T12:22:17.040Z,68.76
2017-04-17T12:24:40.222Z,69.99
2017-04-17T12:25:33.892Z,70.36
2017-04-17T12:26:25.815Z,70.62
2017-04-17T12:27:33.881Z,70.39
2017-04-17T12:28:30.970Z,71.18
2017-04-17T12:29:33.673Z,71.55
2017-04-17T12:30:21.620Z,71.84
2017-04-17T12:31:33.615Z,72.39
2017-04-17T12:32:23.902Z,72.54
2017-04-17T12:33:24.992Z,73.32
2017-04-17T12:34:33.236Z,72.67
2017-04-17T12:35:31.318Z,72.29
2017-04-17T12:36:32.709Z,72.58
2017-04-17T12:38:34.379Z,72.47
2017-04-17T12:39:32.529Z,73.20
2017-04-17T12:41:31.505Z,73.44
2017-04-17T12:42:34.582Z,73.17
2017-04-17T12:43:37.656Z,72.37
2017-04-17T12:44:37.879Z,72.79
2017-04-17T12:45:28.465Z,73.28
2017-04-17T12:46:44.238Z,73.35
2017-04-17T12:47:33.258Z,73.91
2017-04-17T12:48:29.291Z,73.53
2017-04-17T12:49:28.051Z,73.23
2017-04-17T12:50:32.118Z,73.39
2017-04-17T12:51:32.396Z,73.33
2017-04-17T12:52:33.494Z,73.42
2017-04-17T12:53:33.712Z,73.96
2017-04-17T12:54:30.785Z,72.55
2017-04-17T12:55:32.847Z,73.75
2017-04-17T12:57:28.027Z,73.42
2017-04-17T12:58:34.236Z,73.87
2017-04-17T12:59:36.089Z,73.57
2017-04-17T13:00:33.567Z,73.59
2017-04-17T13:01:24.268Z,72.81
2017-04-17T13:04:38.542Z,73.74
2017-04-17T13:07:32.297Z,73.16
2017-04-17T13:08:33.366Z,73.04
2017-04-17T13:09:32.891Z,71.83
2017-04-17T13:12:33.414Z,72.30
2017-04-17T13:13:33.523Z,72.71
2017-04-17T13:14:33.704Z,70.74
2017-04-17T13:15:37.925Z,70.97
2017-04-17T13:16:37.393Z,71.83
2017-04-17T13:17:37.543Z,71.91
2017-04-17T13:18:29.469Z,72.92
2017-04-17T13:19:38.395Z,71.92
2017-04-17T13:20:32.207Z,72.46
2017-04-17T13:21:26.946Z,72.40
2017-04-17T13:22:32.028Z,73.11
2017-04-17T13:23:25.099Z,72.27
2017-04-17T13:24:39.012Z,73.37